Time;durP1;ratioP1;P1;durP2;ratioP2;P2;SDS_P1;SDS_P2;PMS_P1;PMS_P2;Temp;Humidity;BMP_temperature;BMP_pressure;BME280_temperature;BME280_humidity;BME280_pressure;Samples;Min_cycle;Max_cycle;Signal;HPM_P1;HPM_P2
2023/12/11 00:00:39;;;;;;;39.97;18.23;;;;;;;-144.30;96.06;86786.28;5113346;28;20199;-59
2023/12/11 00:03:06;;;;;;;33.40;16.00;;;;;;;-144.30;95.65;86808.16;5113366;27;20241;-59
2023/12/11 00:05:34;;;;;;;32.90;15.93;;;;;;;-144.30;95.81;86778.31;5113000;28;20224;-59
2023/12/11 00:08:01;;;;;;;36.63;16.90;;;;;;;-144.30;95.55;86744.53;5112812;28;20258;-53
2023/12/11 00:10:28;;;;;;;36.27;16.40;;;;;;;-144.30;95.94;86776.34;5113171;28;20633;-52
2023/12/11 00:12:55;;;;;;;37.90;19.10;;;;;;;-144.30;95.80;86820.09;5113045;28;20220;-59
2023/12/11 00:15:22;;;;;;;40.93;18.17;;;;;;;-144.30;95.62;86802.19;5112994;28;20194;-59
2023/12/11 00:17:49;;;;;;;37.30;17.93;;;;;;;-144.30;95.45;86780.31;5113202;28;20195;-52
2023/12/11 00:20:16;;;;;;;34.13;16.73;;;;;;;-144.30;95.53;86774.34;5112961;28;20234;-53
2023/12/11 00:22:45;;;;;;;43.87;18.63;;;;;;;-144.30;95.78;86744.53;5113163;28;20679;-58
2023/12/11 00:25:13;;;;;;;41.17;18.10;;;;;;;-144.30;95.97;86786.28;5112930;28;20228;-58
2023/12/11 00:27:40;;;;;;;39.27;18.27;;;;;;;-144.30;95.95;86788.28;5112785;28;20223;-52
2023/12/11 00:30:09;;;;;;;39.83;17.90;;;;;;;-144.30;95.94;86766.41;5112836;28;20325;-60
2023/12/11 00:32:36;;;;;;;41.20;17.77;;;;;;;-144.30;95.97;86766.41;5112691;28;20689;-59
2023/12/11 00:35:03;;;;;;;41.73;18.60;;;;;;;-144.30;95.83;86766.41;5112892;28;20243;-59
2023/12/11 00:37:30;;;;;;;37.93;17.73;;;;;;;-144.30;95.91;86947.38;5111627;28;20239;-59
2023/12/11 00:39:58;;;;;;;40.37;17.93;;;;;;;-144.30;96.48;86790.25;5112392;28;20198;-59
2023/12/11 00:42:25;;;;;;;44.67;19.10;;;;;;;-144.30;96.60;86766.41;5112638;28;20226;-59
2023/12/11 00:44:52;;;;;;;41.83;17.43;;;;;;;-144.30;96.07;86792.25;5112395;28;20232;-59
2023/12/11 00:47:20;;;;;;;44.93;19.00;;;;;;;-144.30;96.22;86744.53;5112413;28;20252;-52
2023/12/11 00:49:48;;;;;;;36.57;16.60;;;;;;;-144.30;96.40;86768.38;5112232;28;20198;-52
2023/12/11 00:52:15;;;;;;;43.47;18.97;;;;;;;-144.30;96.42;86794.25;5112245;28;20188;-59
2023/12/11 00:54:42;;;;;;;36.53;18.00;;;;;;;-144.30;96.24;86780.31;5112450;28;20198;-59
2023/12/11 00:57:11;;;;;;;41.20;19.27;;;;;;;-144.30;96.74;86792.25;5112484;28;20247;-59
2023/12/11 00:59:38;;;;;;;39.20;19.17;;;;;;;-144.30;96.71;86768.38;5112199;28;20202;-59
2023/12/11 01:02:05;;;;;;;39.20;18.87;;;;;;;-144.30;96.41;86760.44;5112284;28;20299;-58
2023/12/11 01:04:32;;;;;;;39.97;18.70;;;;;;;-144.30;96.45;86806.16;5112067;28;20315;-58
2023/12/11 01:06:59;;;;;;;44.60;18.93;;;;;;;-144.30;96.42;86784.28;5112128;28;20667;-59
2023/12/11 01:09:26;;;;;;;50.13;20.60;;;;;;;-144.30;96.71;86812.13;5111948;28;20194;-52
2023/12/11 01:11:53;;;;;;;50.57;21.30;;;;;;;-144.30;96.54;86792.25;5112089;28;20256;-51
2023/12/11 01:14:22;;;;;;;41.73;19.10;;;;;;;-144.30;97.09;86800.19;5111802;28;20264;-52
2023/12/11 01:16:49;;;;;;;42.73;19.20;;;;;;;-144.30;97.36;86816.13;5111846;28;20634;-59
2023/12/11 01:19:16;;;;;;;43.77;19.87;;;;;;;-144.30;96.74;86770.38;5111738;28;20674;-58
2023/12/11 01:21:44;;;;;;;40.90;19.33;;;;;;;-144.30;96.76;86784.28;5112233;28;20191;-58
2023/12/11 01:24:12;;;;;;;38.83;18.60;;;;;;;-144.30;96.66;86824.06;5111600;28;20198;-58
2023/12/11 01:26:39;;;;;;;45.43;19.67;;;;;;;-144.30;96.82;86784.28;5111646;28;20198;-59
2023/12/11 01:29:06;;;;;;;52.10;20.50;;;;;;;-144.30;97.12;86800.19;5111449;28;20249;-59
2023/12/11 01:31:35;;;;;;;47.27;20.70;;;;;;;-144.30;97.40;86794.25;5111351;28;20194;-60
2023/12/11 01:34:02;;;;;;;46.57;19.77;;;;;;;-144.30;97.79;86824.06;5111401;28;20234;-52
2023/12/11 01:36:29;;;;;;;42.83;19.17;;;;;;;-144.30;98.06;86816.13;5111670;28;20263;-59
2023/12/11 01:38:56;;;;;;;47.60;19.70;;;;;;;-144.30;98.11;86836.00;5111538;27;20186;-52
2023/12/11 01:41:23;;;;;;;48.63;20.27;;;;;;;-144.30;97.82;86768.38;5110972;27;20291;-53
2023/12/11 01:43:53;;;;;;;39.53;18.63;;;;;;;-144.30;98.14;86796.22;5111207;28;20230;-52
2023/12/11 01:46:22;;;;;;;44.70;19.93;;;;;;;-144.30;98.67;86764.41;5111113;28;20264;-52
2023/12/11 01:48:51;;;;;;;44.00;19.53;;;;;;;-144.30;98.62;86796.22;5110956;28;20222;-52
2023/12/11 01:51:19;;;;;;;44.57;18.73;;;;;;;-144.30;98.98;86768.38;5110975;28;20214;-53
2023/12/11 01:53:49;;;;;;;44.63;19.80;;;;;;;-144.30;99.21;86802.19;5111268;28;20225;-53
2023/12/11 01:56:17;;;;;;;42.10;18.63;;;;;;;-144.30;99.24;86843.97;5110977;28;20194;-51
2023/12/11 01:58:45;;;;;;;44.80;19.53;;;;;;;-144.30;99.08;86816.13;5110966;28;20543;-52
2023/12/11 02:01:14;;;;;;;38.43;18.30;;;;;;;-144.30;98.62;86788.28;5110923;28;20194;-53
2023/12/11 02:03:42;;;;;;;40.30;19.23;;;;;;;-144.30;98.82;86812.13;5111363;28;20233;-52
2023/12/11 02:06:10;;;;;;;54.27;20.73;;;;;;;-144.30;99.35;86843.97;5110846;28;20202;-52
2023/12/11 02:08:37;;;;;;;48.20;19.23;;;;;;;-144.30;99.57;86792.25;5110672;28;20222;-52
2023/12/11 02:11:05;;;;;;;46.33;20.77;;;;;;;-144.30;99.07;86839.97;5110726;28;20251;-53
2023/12/11 02:13:32;;;;;;;45.00;19.90;;;;;;;-144.30;99.32;86816.13;5110639;28;20205;-53
2023/12/11 02:15:59;;;;;;;54.67;20.93;;;;;;;-144.30;99.74;86830.03;5110549;28;20636;-59
2023/12/11 02:18:26;;;;;;;47.70;20.00;;;;;;;-144.30;99.69;86826.06;5110534;28;20298;-59
2023/12/11 02:20:53;;;;;;;49.30;21.07;;;;;;;-144.30;99.97;86808.16;5110384;28;20258;-59
2023/12/11 02:23:30;;;;;;;50.43;20.77;;;;;;;-144.30;100.00;86830.03;5110631;28;20198;-52
2023/12/11 02:26:15;;;;;;;52.73;21.23;;;;;;;-144.30;100.00;86804.19;5110957;28;20198;-52
2023/12/11 02:28:42;;;;;;;53.47;20.87;;;;;;;-144.30;100.00;86824.06;5110413;28;20230;-58
2023/12/11 02:31:09;;;;;;;54.43;21.93;;;;;;;-144.30;100.00;86816.13;5110376;28;20198;-52
2023/12/11 02:33:37;;;;;;;50.73;21.30;;;;;;;-144.30;100.00;86839.97;5110390;28;20639;-52
2023/12/11 02:36:04;;;;;;;51.53;22.33;;;;;;;-144.30;100.00;86843.97;5110567;28;20194;-57
2023/12/11 02:38:31;;;;;;;49.20;21.47;;;;;;;-144.30;100.00;86788.28;5110341;28;20240;-59
2023/12/11 02:40:58;;;;;;;46.40;20.67;;;;;;;-144.30;100.00;86822.09;5110198;28;20292;-59
2023/12/11 02:43:27;;;;;;;51.90;22.63;;;;;;;-144.30;100.00;86816.13;5110272;28;20197;-51
2023/12/11 02:45:54;;;;;;;52.23;22.97;;;;;;;-144.30;100.00;86818.09;5110382;28;20251;-59
2023/12/11 02:48:21;;;;;;;49.43;22.07;;;;;;;-144.30;100.00;86867.81;5110175;28;20303;-60
2023/12/11 02:50:48;;;;;;;53.27;22.50;;;;;;;-144.30;100.00;86796.22;5110186;28;20226;-58
2023/12/11 02:53:15;;;;;;;53.70;21.67;;;;;;;-144.30;100.00;86820.09;5109900;28;20230;-59
2023/12/11 02:55:42;;;;;;;53.97;21.80;;;;;;;-144.30;100.00;86822.09;5110346;28;20198;-59
2023/12/11 02:58:09;;;;;;;53.40;21.80;;;;;;;-144.30;100.00;86808.16;5110038;28;20190;-58
2023/12/11 03:00:37;;;;;;;52.43;23.50;;;;;;;-144.30;100.00;86778.31;5109411;28;20226;-59
2023/12/11 03:03:04;;;;;;;54.30;22.70;;;;;;;-144.30;100.00;86802.19;5110208;28;20202;-59
2023/12/11 03:05:31;;;;;;;47.97;21.23;;;;;;;-144.30;100.00;86816.13;5110094;28;20230;-59
2023/12/11 03:07:58;;;;;;;52.73;22.97;;;;;;;-144.30;100.00;86832.03;5109956;28;20268;-59
2023/12/11 03:10:25;;;;;;;57.33;25.87;;;;;;;-144.30;100.00;86839.97;5110071;28;20226;-59
2023/12/11 03:12:52;;;;;;;52.40;24.60;;;;;;;-144.30;100.00;86816.13;5110510;28;20313;-53
2023/12/11 03:15:19;;;;;;;55.10;24.50;;;;;;;-144.30;100.00;86706.72;5109965;28;20226;-52
2023/12/11 03:17:48;;;;;;;54.30;23.43;;;;;;;-144.30;100.00;86820.09;5109945;28;20242;-52
2023/12/11 03:20:15;;;;;;;56.40;23.53;;;;;;;-144.30;100.00;87078.63;5109597;28;20226;-52
2023/12/11 03:22:42;;;;;;;56.10;22.37;;;;;;;-144.30;100.00;86800.19;5109929;28;20689;-58
2023/12/11 03:25:10;;;;;;;51.73;22.80;;;;;;;-144.30;100.00;86806.16;5110325;28;20619;-59
2023/12/11 03:27:37;;;;;;;54.83;24.37;;;;;;;-144.30;100.00;86843.97;5109970;28;20271;-58
2023/12/11 03:30:04;;;;;;;59.93;23.70;;;;;;;-144.30;100.00;86851.91;5110044;28;20198;-57
2023/12/11 03:32:31;;;;;;;60.10;24.27;;;;;;;-144.30;100.00;86836.00;5109888;28;20220;-59
2023/12/11 03:34:59;;;;;;;55.47;23.90;;;;;;;-144.30;100.00;86832.03;5109789;28;20195;-53
2023/12/11 03:37:26;;;;;;;54.17;23.80;;;;;;;-144.30;100.00;86808.16;5110163;28;20199;-59
2023/12/11 03:39:53;;;;;;;56.13;23.87;;;;;;;-144.30;100.00;86828.03;5110031;28;20245;-53
2023/12/11 03:42:21;;;;;;;51.43;23.43;;;;;;;-144.30;100.00;86780.31;5109940;28;20258;-53
2023/12/11 03:44:48;;;;;;;57.03;24.17;;;;;;;-144.30;100.00;86820.09;5109916;28;20200;-58
2023/12/11 03:47:15;;;;;;;62.50;24.10;;;;;;;-144.30;100.00;86832.03;5109471;28;20656;-52
2023/12/11 03:49:42;;;;;;;55.10;24.00;;;;;;;-144.30;100.00;86820.09;5109232;28;20222;-58
2023/12/11 03:52:10;;;;;;;57.80;24.07;;;;;;;-144.30;100.00;86830.03;5109387;28;20206;-52
2023/12/11 03:54:37;;;;;;;61.77;24.97;;;;;;;-144.30;100.00;86836.00;5109592;28;20229;-52
2023/12/11 03:57:05;;;;;;;66.73;28.90;;;;;;;-144.30;100.00;86782.31;5109552;28;20230;-52
2023/12/11 03:59:32;;;;;;;74.07;32.97;;;;;;;-144.30;100.00;86832.03;5109459;28;20187;-53
2023/12/11 04:01:59;;;;;;;86.87;34.13;;;;;;;-144.30;100.00;86730.59;5109543;28;20200;-59
2023/12/11 04:04:26;;;;;;;73.63;30.40;;;;;;;-144.30;100.00;86851.91;5109546;28;20206;-60
2023/12/11 04:06:53;;;;;;;70.37;29.90;;;;;;;-144.30;100.00;86812.13;5109463;28;20195;-58
2023/12/11 04:09:22;;;;;;;65.57;30.03;;;;;;;-144.30;100.00;86816.13;5109247;28;20264;-60
2023/12/11 04:11:48;;;;;;;69.55;29.58;;;;;;;-144.30;100.00;86851.91;5109506;28;20377;-58
2023/12/11 04:14:15;;;;;;;73.13;31.07;;;;;;;-144.30;100.00;86818.09;5111977;28;20229;-52
2023/12/11 04:16:43;;;;;;;65.77;29.43;;;;;;;-144.30;100.00;86877.75;5112852;28;20198;-60
2023/12/11 04:19:11;;;;;;;68.00;29.60;;;;;;;-144.30;100.00;86834.00;5113280;28;20248;-49
2023/12/11 04:21:38;;;;;;;56.13;26.63;;;;;;;-144.30;100.00;86841.97;5112694;28;20198;-52
2023/12/11 04:24:06;;;;;;;63.50;26.47;;;;;;;-144.30;100.00;86804.19;5113051;28;20233;-52
2023/12/11 04:26:34;;;;;;;66.80;27.73;;;;;;;-144.30;100.00;86808.16;5112730;28;20251;-52
2023/12/11 04:29:01;;;;;;;63.00;28.27;;;;;;;-144.30;100.00;86836.00;5112570;28;20790;-51
2023/12/11 04:31:28;;;;;;;67.87;27.87;;;;;;;-144.30;100.00;86804.19;5112816;28;20199;-52
2023/12/11 04:33:55;;;;;;;61.00;27.90;;;;;;;-144.30;100.00;86836.00;5112997;28;20233;-52
2023/12/11 04:36:22;;;;;;;58.67;27.83;;;;;;;-144.30;100.00;86824.06;5112662;28;20233;-60
2023/12/11 04:38:49;;;;;;;67.00;27.53;;;;;;;-144.30;100.00;86847.94;5112759;28;20649;-60
2023/12/11 04:41:16;;;;;;;58.20;26.97;;;;;;;-144.30;100.00;86820.09;5112497;28;20694;-58
2023/12/11 04:43:45;;;;;;;64.43;27.43;;;;;;;-144.30;100.00;86810.16;5112571;28;20242;-60
2023/12/11 04:46:12;;;;;;;73.27;28.37;;;;;;;-144.30;100.00;86839.97;5112571;28;20198;-59
2023/12/11 04:48:39;;;;;;;70.87;29.07;;;;;;;-144.30;100.00;86857.88;5112365;28;20229;-59
2023/12/11 04:51:06;;;;;;;70.27;29.93;;;;;;;-144.30;100.00;86847.94;5112161;28;20197;-58
2023/12/11 04:53:33;;;;;;;73.70;28.93;;;;;;;-144.30;100.00;86820.09;5112342;28;20280;-60
2023/12/11 04:56:05;;;;;;;68.43;28.17;;;;;;;-144.30;100.00;86867.81;5112087;28;20284;-59
2023/12/11 04:58:32;;;;;;;59.13;26.50;;;;;;;-144.30;100.00;86818.09;5108323;27;20631;-51
2023/12/11 05:01:01;;;;;;;67.93;26.37;;;;;;;-144.30;100.00;86818.09;5111723;28;20237;-51
2023/12/11 05:03:27;;;;;;;53.93;24.90;;;;;;;-144.30;100.00;86839.97;5111921;28;20661;-51
2023/12/11 05:05:54;;;;;;;64.63;26.60;;;;;;;-144.30;100.00;86855.88;5111904;28;20278;-61
2023/12/11 05:08:21;;;;;;;66.00;27.00;;;;;;;-144.30;100.00;86839.97;5112089;28;20297;-60
2023/12/11 05:10:48;;;;;;;72.60;27.70;;;;;;;-144.30;100.00;86841.97;5111588;28;20223;-51
2023/12/11 05:13:15;;;;;;;62.37;26.13;;;;;;;-144.30;100.00;86841.97;5112057;28;20627;-59
2023/12/11 05:15:42;;;;;;;60.00;27.13;;;;;;;-144.30;100.00;86855.88;5111150;28;20259;-61
2023/12/11 05:18:11;;;;;;;73.47;28.77;;;;;;;-144.30;100.00;86871.81;5111999;28;20254;-60
2023/12/11 05:20:38;;;;;;;64.20;28.27;;;;;;;-144.30;100.00;86832.03;5111793;28;20642;-50
2023/12/11 05:23:05;;;;;;;70.10;29.13;;;;;;;-144.30;100.00;86836.00;5111652;28;20192;-51
2023/12/11 05:25:32;;;;;;;62.40;27.47;;;;;;;-144.30;100.00;86792.25;5111064;28;20226;-61
2023/12/11 05:27:59;;;;;;;70.53;32.83;;;;;;;-144.30;100.00;86855.88;5111375;28;20669;-60
2023/12/11 05:30:26;;;;;;;83.43;34.43;;;;;;;-144.30;100.00;86847.94;5110407;28;20229;-60
2023/12/11 05:32:53;;;;;;;84.00;35.47;;;;;;;-144.30;100.00;86830.03;5110797;28;20225;-51
2023/12/11 05:35:21;;;;;;;85.93;36.63;;;;;;;-144.30;100.00;86839.97;5109646;27;20244;-52
2023/12/11 05:37:48;;;;;;;98.70;40.60;;;;;;;-144.30;100.00;86855.88;5111551;28;20198;-51
2023/12/11 05:40:15;;;;;;;94.37;41.00;;;;;;;-144.30;100.00;86853.91;5110838;28;20233;-50
2023/12/11 05:42:42;;;;;;;99.37;41.33;;;;;;;-144.30;100.00;86834.00;5111289;28;20199;-50
2023/12/11 05:45:10;;;;;;;109.37;42.70;;;;;;;-144.30;100.00;86847.94;5110613;27;20233;-51
2023/12/11 05:47:37;;;;;;;95.33;38.83;;;;;;;-144.30;100.00;86804.19;5111020;28;20198;-58
2023/12/11 05:50:05;;;;;;;88.40;34.00;;;;;;;-144.30;100.00;86818.09;5111223;28;20736;-59
2023/12/11 05:52:33;;;;;;;85.63;37.60;;;;;;;-144.30;100.00;86824.06;5110757;28;20229;-58
2023/12/11 05:55:00;;;;;;;88.07;35.30;;;;;;;-144.30;100.00;86839.97;5110823;28;20233;-51
2023/12/11 05:57:27;;;;;;;84.07;36.30;;;;;;;-144.30;100.00;86841.97;5110736;28;20205;-49
2023/12/11 05:59:54;;;;;;;85.50;37.97;;;;;;;-144.30;100.00;86849.91;5110282;28;20634;-60
2023/12/11 06:02:21;;;;;;;81.40;36.50;;;;;;;-144.30;100.00;86857.88;5110005;28;20248;-59
2023/12/11 06:04:48;;;;;;;93.93;35.80;;;;;;;-144.30;100.00;86839.97;5109927;28;20247;-59
2023/12/11 06:07:15;;;;;;;77.50;34.40;;;;;;;-144.30;100.00;86839.97;5109547;28;20224;-59
2023/12/11 06:09:43;;;;;;;87.23;35.37;;;;;;;-144.30;100.00;86836.00;5110578;28;20218;-59
2023/12/11 06:12:10;;;;;;;88.10;36.07;;;;;;;-144.30;100.00;86816.13;5110758;28;20284;-59
2023/12/11 06:14:40;;;;;;;83.93;37.23;;;;;;;-144.30;100.00;86830.03;5110937;28;20741;-59
2023/12/11 06:17:07;;;;;;;91.07;37.23;;;;;;;-144.30;100.00;86843.97;5110935;28;20572;-58
2023/12/11 06:19:34;;;;;;;109.57;39.47;;;;;;;-144.30;100.00;86834.00;5110513;28;20218;-59
2023/12/11 06:22:01;;;;;;;104.40;40.83;;;;;;;-144.30;100.00;86834.00;5110730;28;20678;-59
2023/12/11 06:24:28;;;;;;;98.10;38.47;;;;;;;-144.30;100.00;86847.94;5110290;28;20234;-59
2023/12/11 06:26:56;;;;;;;86.73;36.83;;;;;;;-144.30;100.00;86836.00;5110639;28;20206;-58
2023/12/11 06:29:23;;;;;;;88.57;37.60;;;;;;;-144.30;100.00;86814.13;5110279;28;20625;-51
2023/12/11 06:31:50;;;;;;;99.20;41.90;;;;;;;-144.30;100.00;86824.06;5110242;28;20721;-52
2023/12/11 06:34:17;;;;;;;98.50;40.53;;;;;;;-144.30;100.00;86843.97;5110108;28;20236;-51
2023/12/11 06:36:44;;;;;;;105.13;41.37;;;;;;;-144.30;100.00;86836.00;5109843;28;20244;-58
2023/12/11 06:39:11;;;;;;;110.90;45.73;;;;;;;-144.30;100.00;86808.16;5110514;28;20274;-59
2023/12/11 06:41:38;;;;;;;122.07;47.30;;;;;;;-144.30;100.00;86839.97;5110273;28;20265;-53
2023/12/11 06:44:08;;;;;;;147.50;58.37;;;;;;;-144.30;100.00;86826.06;5110073;28;20530;-58
2023/12/11 06:46:35;;;;;;;137.73;54.23;;;;;;;-144.30;99.79;86806.16;5110089;28;20201;-58
2023/12/11 06:49:02;;;;;;;122.87;47.60;;;;;;;-144.30;100.00;86836.00;5110191;28;20279;-52
2023/12/11 06:51:29;;;;;;;113.90;44.47;;;;;;;-144.30;99.69;86812.13;5110133;28;20241;-59
2023/12/11 06:53:58;;;;;;;110.37;42.57;;;;;;;-144.30;99.36;86830.03;5110171;28;20205;-52
2023/12/11 06:56:25;;;;;;;101.83;42.20;;;;;;;-144.30;98.57;86812.13;5110011;28;20190;-52
2023/12/11 06:58:53;;;;;;;108.20;43.23;;;;;;;-144.30;98.86;86812.13;5110145;28;20695;-51
2023/12/11 07:01:21;;;;;;;102.27;41.57;;;;;;;-144.30;98.98;86792.25;5109968;28;20201;-58
2023/12/11 07:03:49;;;;;;;98.63;39.27;;;;;;;-144.30;99.20;86816.13;5110246;28;20198;-59
2023/12/11 07:06:17;;;;;;;101.27;39.53;;;;;;;-144.30;99.10;86800.19;5109823;28;20198;-59
2023/12/11 07:08:44;;;;;;;98.63;38.93;;;;;;;-144.30;98.89;86776.34;5109749;28;20237;-58
2023/12/11 07:11:11;;;;;;;97.93;38.47;;;;;;;-144.30;98.55;86814.13;5109552;28;20198;-58
2023/12/11 07:13:38;;;;;;;85.33;34.03;;;;;;;-144.30;98.10;86740.53;5109564;28;20195;-59
2023/12/11 07:16:05;;;;;;;63.10;30.43;;;;;;;-144.30;97.49;86744.53;5109744;28;20187;-53
2023/12/11 07:18:34;;;;;;;67.93;29.07;;;;;;;-144.30;97.06;86776.34;5109905;28;20751;-52
2023/12/11 07:21:02;;;;;;;87.17;33.57;;;;;;;-144.30;96.51;86748.50;5109820;28;20187;-50
2023/12/11 07:23:29;;;;;;;76.30;31.23;;;;;;;-144.30;95.84;86750.50;5109531;28;20285;-59
2023/12/11 07:25:56;;;;;;;82.63;32.63;;;;;;;-144.30;95.63;86766.41;5109796;28;20230;-52
2023/12/11 07:28:23;;;;;;;64.77;29.80;;;;;;;-144.30;95.39;86760.44;5109478;28;20230;-59
2023/12/11 07:30:50;;;;;;;72.47;31.73;;;;;;;-144.30;95.41;86794.25;5109719;28;20295;-58
2023/12/11 07:33:17;;;;;;;73.20;28.77;;;;;;;-144.30;95.20;86760.44;5109996;28;20262;-59
2023/12/11 07:35:46;;;;;;;67.33;28.93;;;;;;;-144.30;94.31;87353.13;5109932;28;20778;-59
2023/12/11 07:38:13;;;;;;;70.83;29.00;;;;;;;-144.30;93.80;86766.41;5110043;28;20227;-58
2023/12/11 07:40:39;;;;;;;74.43;30.70;;;;;;;-144.30;94.36;86744.53;5109564;28;20619;-59
2023/12/11 07:43:07;;;;;;;74.87;28.13;;;;;;;-144.30;93.79;86780.31;5109459;28;20557;-59
2023/12/11 07:45:35;;;;;;;76.43;29.37;;;;;;;-144.30;94.47;86760.44;5109665;28;20255;-52
2023/12/11 07:48:02;;;;;;;71.60;29.93;;;;;;;-144.30;94.46;86716.69;5112058;28;20226;-50
2023/12/11 07:50:29;;;;;;;65.13;29.63;;;;;;;-144.30;94.03;86768.38;5113487;28;20253;-54
2023/12/11 07:52:58;;;;;;;56.93;25.30;;;;;;;-144.30;94.67;86780.31;5113290;28;20191;-53
2023/12/11 07:55:25;;;;;;;56.33;24.93;;;;;;;-144.30;94.24;86742.53;5113196;28;20199;-53
2023/12/11 07:57:52;;;;;;;62.57;24.93;;;;;;;-144.30;94.67;86770.38;5113392;28;20662;-59
2023/12/11 08:00:19;;;;;;;64.33;25.83;;;;;;;-144.30;94.62;86768.38;5113349;27;20197;-59
2023/12/11 08:02:46;;;;;;;66.03;26.43;;;;;;;-144.30;94.81;86752.47;5113013;28;20247;-52
2023/12/11 08:05:13;;;;;;;69.73;28.20;;;;;;;-144.30;94.52;86736.56;5113308;28;20623;-52
2023/12/11 08:07:40;;;;;;;62.13;28.27;;;;;;;-144.30;95.08;86732.59;5113089;28;20198;-52
2023/12/11 08:10:10;;;;;;;74.13;28.50;;;;;;;-144.30;95.29;86758.44;5112850;28;20222;-54
2023/12/11 08:12:37;;;;;;;76.87;31.00;;;;;;;-144.30;94.84;86738.56;5112700;28;20195;-52
2023/12/11 08:15:04;;;;;;;70.97;30.33;;;;;;;-144.30;94.50;86774.34;5113260;28;20248;-52
2023/12/11 08:17:32;;;;;;;78.50;29.57;;;;;;;-144.30;94.48;86756.44;5112881;28;20589;-51
2023/12/11 08:19:59;;;;;;;74.20;30.53;;;;;;;-144.30;94.39;86736.56;5112814;28;20190;-59
2023/12/11 08:22:26;;;;;;;64.27;29.07;;;;;;;-144.30;94.12;86732.59;5112685;28;20264;-53
2023/12/11 08:24:54;;;;;;;80.60;30.23;;;;;;;-144.30;93.51;86764.41;5112643;27;20187;-52
2023/12/11 08:27:23;;;;;;;73.87;29.67;;;;;;;-144.30;93.68;86704.75;5112539;28;20239;-52
2023/12/11 08:29:50;;;;;;;74.90;31.50;;;;;;;-144.30;94.28;86732.59;5112670;28;20244;-59
2023/12/11 08:32:17;;;;;;;65.73;29.83;;;;;;;-144.30;93.89;86752.47;5112605;28;20226;-59
2023/12/11 08:34:44;;;;;;;67.60;31.30;;;;;;;-144.30;94.29;86736.56;5112764;28;20626;-59
2023/12/11 08:37:11;;;;;;;81.63;31.80;;;;;;;-144.30;94.38;86732.59;5112452;28;20649;-59
2023/12/11 08:39:38;;;;;;;67.13;31.53;;;;;;;-144.30;94.15;86734.56;5112421;28;20212;-60
2023/12/11 08:42:05;;;;;;;79.77;31.17;;;;;;;-144.30;94.14;86720.66;5112327;28;20226;-59
2023/12/11 08:44:34;;;;;;;69.63;29.33;;;;;;;-144.30;93.36;86736.56;5112284;28;20272;-59
2023/12/11 08:47:01;;;;;;;71.23;29.43;;;;;;;-144.30;92.41;86710.72;5112310;28;20194;-52
2023/12/11 08:49:28;;;;;;;73.17;30.33;;;;;;;-144.30;92.57;86553.59;5111957;28;20222;-53
2023/12/11 08:51:55;;;;;;;73.37;30.50;;;;;;;-144.30;92.37;86684.84;5112160;28;20678;-59
2023/12/11 08:54:22;;;;;;;70.13;30.13;;;;;;;-144.30;91.94;86696.78;5111580;27;20203;-54
2023/12/11 08:56:49;;;;;;;81.33;31.00;;;;;;;-144.30;91.93;86682.88;5111845;28;20307;-51
2023/12/11 08:59:16;;;;;;;79.40;31.17;;;;;;;-144.30;91.77;86700.78;5111664;28;20204;-59
2023/12/11 09:01:44;;;;;;;77.37;31.40;;;;;;;-144.30;91.77;86702.75;5111974;28;20203;-51
2023/12/11 09:04:11;;;;;;;77.97;32.60;;;;;;;-144.30;91.39;86740.53;5112082;27;20195;-53
2023/12/11 09:06:38;;;;;;;83.97;33.70;;;;;;;-144.30;92.23;86712.69;5111837;28;20512;-52
2023/12/11 09:09:05;;;;;;;84.43;34.07;;;;;;;-144.30;93.05;86702.75;5112043;28;20300;-53
2023/12/11 09:11:32;;;;;;;79.40;33.27;;;;;;;-144.30;92.83;86708.72;5106607;28;20305;-52
2023/12/11 09:13:59;;;;;;;84.47;33.90;;;;;;;-144.30;92.39;86682.88;5111790;28;20202;-52
2023/12/11 09:16:26;;;;;;;87.13;33.20;;;;;;;-144.30;92.48;86724.63;5111454;28;20226;-53
2023/12/11 09:18:55;;;;;;;79.03;33.30;;;;;;;-144.30;92.29;86704.75;5111519;28;21331;-51
2023/12/11 09:21:23;;;;;;;77.20;33.70;;;;;;;-144.30;92.47;86720.66;5119475;27;20202;-52
2023/12/11 09:23:50;;;;;;;78.93;33.47;;;;;;;-144.30;92.22;86690.81;5111627;28;20654;-53
2023/12/11 09:26:17;;;;;;;90.37;33.47;;;;;;;-144.30;92.18;86708.72;5110785;28;20203;-60
2023/12/11 09:28:45;;;;;;;87.50;34.10;;;;;;;-144.30;92.52;86662.97;5111312;28;20670;-59
2023/12/11 09:31:12;;;;;;;85.13;33.20;;;;;;;-144.30;91.40;86641.09;5111438;28;20293;-59
2023/12/11 09:33:40;;;;;;;83.43;33.67;;;;;;;-144.30;91.16;86688.84;5110523;28;20256;-58
2023/12/11 09:36:09;;;;;;;83.03;33.33;;;;;;;-144.30;91.39;86686.84;5111650;28;20195;-59
2023/12/11 09:38:36;;;;;;;75.63;32.80;;;;;;;-144.30;91.28;86664.97;5111390;28;20623;-59
2023/12/11 09:41:03;;;;;;;85.00;34.47;;;;;;;-144.30;91.00;86645.09;5110632;28;20222;-58
2023/12/11 09:43:30;;;;;;;76.27;31.73;;;;;;;-144.30;90.63;86680.88;5111105;28;20202;-59
2023/12/11 09:45:59;;;;;;;72.47;32.70;;;;;;;-144.30;90.81;86629.19;5111037;28;20199;-53
2023/12/11 09:48:28;;;;;;;81.20;34.13;;;;;;;-144.30;90.53;86649.06;5111091;28;20230;-52
2023/12/11 09:50:55;;;;;;;71.77;32.40;;;;;;;-144.30;90.59;86664.97;5110905;28;20258;-53
2023/12/11 09:53:24;;;;;;;78.67;34.13;;;;;;;-144.30;90.70;86653.03;5111229;28;20678;-52
2023/12/11 09:55:51;;;;;;;79.33;34.63;;;;;;;-144.30;90.46;86657.03;5110704;28;20252;-52
2023/12/11 09:58:21;;;;;;;73.30;33.40;;;;;;;-144.30;90.46;86661.00;5110537;28;20664;-59
2023/12/11 10:00:48;;;;;;;92.97;34.60;;;;;;;-144.30;90.51;86645.09;5110751;28;20228;-59
2023/12/11 10:03:16;;;;;;;88.27;35.23;;;;;;;-144.30;89.64;86627.19;5111103;28;20245;-58
2023/12/11 10:05:43;;;;;;;88.17;35.50;;;;;;;-144.30;89.64;86627.19;5111049;28;20690;-52
2023/12/11 10:08:11;;;;;;;81.60;32.70;;;;;;;-144.30;89.22;86639.13;5110885;27;20689;-57
2023/12/11 10:10:40;;;;;;;80.37;34.10;;;;;;;-144.30;89.66;86655.03;5108754;28;20221;-59
2023/12/11 10:13:07;;;;;;;86.87;35.40;;;;;;;-144.30;89.39;86676.91;5110493;28;20228;-58
2023/12/11 10:15:36;;;;;;;86.13;35.20;;;;;;;-144.30;89.64;86617.25;5109585;28;20233;-59
2023/12/11 10:18:05;;;;;;;76.10;34.63;;;;;;;-144.30;89.76;86629.19;5110713;28;20655;-53
2023/12/11 10:20:32;;;;;;;73.80;33.90;;;;;;;-144.30;89.52;86601.34;5109629;28;20658;-53
2023/12/11 10:22:59;;;;;;;75.67;33.40;;;;;;;-144.30;89.37;86639.13;5110436;28;20243;-51
2023/12/11 10:25:28;;;;;;;82.40;36.00;;;;;;;-144.30;89.76;86672.94;5110241;27;20252;-52
2023/12/11 10:28:10;;;;;;;90.57;37.57;;;;;;;-144.30;90.80;86641.09;5110569;27;20268;-53
2023/12/11 10:30:51;;;;;;;92.67;38.23;;;;;;;-144.30;90.46;86619.22;5110190;28;20272;-52
2023/12/11 10:33:18;;;;;;;74.80;35.33;;;;;;;-144.30;89.54;86661.00;5110411;28;20198;-53
2023/12/11 10:35:45;;;;;;;81.90;35.13;;;;;;;-144.30;89.18;86662.97;5110478;28;20201;-53
2023/12/11 10:38:12;;;;;;;83.13;34.63;;;;;;;-144.30;88.69;86639.13;5110323;28;20237;-53
2023/12/11 10:40:41;;;;;;;79.90;34.90;;;;;;;-144.30;88.67;86607.31;5107620;28;20226;-51
2023/12/11 10:43:09;;;;;;;80.43;35.00;;;;;;;-144.30;87.87;86607.31;5089791;28;20245;-52
2023/12/11 10:45:37;;;;;;;83.00;33.17;;;;;;;-144.30;88.16;86581.44;5089392;28;20231;-58
2023/12/11 10:48:04;;;;;;;88.07;33.43;;;;;;;-144.30;87.58;86623.22;5089837;28;20644;-59
2023/12/11 10:50:30;;;;;;;67.43;30.93;;;;;;;-144.30;87.16;86593.38;5089515;28;20219;-59
2023/12/11 10:53:01;;;;;;;80.33;32.87;;;;;;;-144.30;87.67;86637.13;5089861;28;20199;-58
2023/12/11 10:55:29;;;;;;;81.87;32.03;;;;;;;-144.30;88.04;86611.28;5089830;28;20195;-59
2023/12/11 10:57:57;;;;;;;81.07;31.23;;;;;;;-144.30;87.72;86621.22;5089895;28;20286;-60